Flight Track Log - Related Links

Times and Time Zones

All times are in EDT time to prevent confusion due to time zone crossing. See the N131TX flight status page for this flight to view local times or setup timezone preferences in your user account.

Time Position Orientation Groundspeed Altitude Reporting Facility
EDT Latitude Longitude Course Direction KTS MPH feet Rate Location/Type
Sat 11:50:12 AM 30.0538 -95.5519 183° South 100 115 300  Level FlightAware ADS-B
Sat 11:50:15 AM 30.0522 -95.5520 187° South 100 115 400 1,500 Climbing FlightAware ADS-B
Sat 11:50:20 AM 30.0501 -95.5523 200° South 97 112 500 1,333 Climbing FlightAware ADS-B
Sat 11:50:24 AM 30.0482 -95.5531 205° Southwest 103 119 600 857 Climbing FlightAware ADS-B
Sat 11:50:27 AM 30.0467 -95.5539 213° Southwest 109 125 600  Level FlightAware ADS-B
Sat 11:50:31 AM 30.0451 -95.5551 223° Southwest 113 130 600 750 Level FlightAware ADS-B
Sat 11:50:35 AM 30.0435 -95.5568 230° Southwest 115 132 700 1,714 Climbing FlightAware ADS-B
Sat 11:50:38 AM 30.0424 -95.5583 233° Southwest 113 130 800 2,000 Climbing FlightAware ADS-B
Sat 11:50:44 AM 30.0406 -95.5611 233° Southwest 107 123 1,000 1,286 Climbing FlightAware ADS-B
Sat 11:50:52 AM 30.0383 -95.5646 231° Southwest 107 123 1,100 750 Climbing FlightAware ADS-B
Sat 11:51:00 AM 30.0356 -95.5684 229° Southwest 113 130 1,200 1,059 Climbing FlightAware ADS-B
Sat 11:51:09 AM 30.0327 -95.5723 230° Southwest 117 135 1,400 1,200 Climbing FlightAware ADS-B
Sat 11:51:20 AM 30.0288 -95.5776 231° Southwest 119 137 1,600 1,000 Climbing FlightAware ADS-B
Sat 11:51:27 AM 30.0263 -95.5812 235° Southwest 119 137 1,700 1,286 Climbing FlightAware ADS-B
Sat 11:51:34 AM 30.0241 -95.5848 234° Southwest 119 137 1,900 1,263 Climbing FlightAware ADS-B
Sat 11:51:46 AM 30.0202 -95.5910 234° Southwest 119 137 2,100 1,200 Climbing FlightAware ADS-B
Sat 11:51:54 AM 30.0176 -95.5952 235° Southwest 120 138 2,300 1,000 Climbing FlightAware ADS-B
Sat 11:52:04 AM 30.0145 -95.6004 236° Southwest 121 139 2,400 1,000 Climbing FlightAware ADS-B
Sat 11:52:12 AM 30.0121 -95.6045 235° Southwest 120 138 2,600 947 Climbing FlightAware ADS-B
Sat 11:52:23 AM 30.0082 -95.6109 234° Southwest 129 148 2,700 923 Climbing FlightAware ADS-B
Sat 11:52:38 AM 30.0027 -95.6196 237° Southwest 137 158 3,000 947 Climbing FlightAware ADS-B
Sat 11:52:42 AM 30.0013 -95.6221 238° Southwest 140 161 3,000  Level FlightAware ADS-B
Sat 11:52:58 AM 29.9958 -95.6322 234° Southwest 156 180 3,000 300 Level FlightAware ADS-B
Sat 11:53:02 AM 29.9940 -95.6351 231° Southwest 159 183 3,100 375 Climbing FlightAware ADS-B
Sat 11:53:14 AM 29.9883 -95.6432 231° Southwest 167 192 3,100  Level FlightAware ADS-B
Sat 11:53:29 AM 29.9806 -95.6542 232° Southwest 174 200 3,100  Level FlightAware ADS-B
Sat 11:53:35 AM 29.9779 -95.6582 236° Southwest 175 201 3,100  Level FlightAware ADS-B
Sat 11:53:40 AM 29.9756 -95.6621 239° Southwest 177 204 3,100  Level FlightAware ADS-B
Sat 11:53:45 AM 29.9734 -95.6663 246° West 176 203 3,100  Level FlightAware ADS-B
Sat 11:53:48 AM 29.9724 -95.6689 250° West 176 203 3,100  Level FlightAware ADS-B
Sat 11:53:51 AM 29.9714 -95.6720 252° West 178 205 3,100  Level FlightAware ADS-B
Sat 11:53:57 AM 29.9701 -95.6767 259° West 178 205 3,100  Level FlightAware ADS-B
Sat 11:54:01 AM 29.9694 -95.6807 261° West 179 206 3,100  Level FlightAware ADS-B
Sat 11:54:04 AM 29.9690 -95.6836 266° West 179 206 3,100  Level FlightAware ADS-B
Sat 11:54:07 AM 29.9688 -95.6869 269° West 181 208 3,100  Level FlightAware ADS-B
Sat 11:54:12 AM 29.9687 -95.6917 274° West 180 207 3,100  Level FlightAware ADS-B
Sat 11:54:18 AM 29.9690 -95.6968 278° West 181 208 3,100  Level FlightAware ADS-B
Sat 11:54:21 AM 29.9694 -95.7003 283° West 182 209 3,100  Level FlightAware ADS-B
Sat 11:54:25 AM 29.9701 -95.7039 285° West 181 208 3,100  Level FlightAware ADS-B
Sat 11:54:29 AM 29.9709 -95.7074 290° West 180 207 3,100  Level FlightAware ADS-B
Sat 11:54:40 AM 29.9741 -95.7178 286° West 181 208 3,100  Level FlightAware ADS-B
Sat 11:54:55 AM 29.9775 -95.7317 284° West 182 209 3,100  Level FlightAware ADS-B
Sat 11:55:11 AM 29.9808 -95.7466 284° West 182 209 3,100  Level FlightAware ADS-B
Sat 11:55:25 AM 29.9836 -95.7594 285° West 183 211 3,100  Level FlightAware ADS-B
Sat 11:55:40 AM 29.9870 -95.7743 285° West 183 211 3,100  Level FlightAware ADS-B
Sat 11:55:56 AM 29.9904 -95.7887 285° West 183 211 3,100  Level FlightAware ADS-B
Sat 11:56:11 AM 29.9937 -95.8028 286° West 182 209 3,100  Level FlightAware ADS-B
Sat 11:56:19 AM 29.9956 -95.8107 285° West 179 206 3,100 261 Level FlightAware ADS-B
Sat 11:56:34 AM 29.9988 -95.8245 285° West 174 200 3,200 621 Climbing FlightAware ADS-B
Sat 11:56:48 AM 30.0016 -95.8363 284° West 167 192 3,400 1,200 Climbing FlightAware ADS-B
Sat 11:56:54 AM 30.0027 -95.8415 285° West 161 185 3,600 1,429 Climbing FlightAware ADS-B
Sat 11:57:09 AM 30.0055 -95.8535 284° West 149 171 3,900 1,355 Climbing FlightAware ADS-B
Sat 11:57:25 AM 30.0080 -95.8648 285° West 140 161 4,300 1,548 Climbing FlightAware ADS-B
Sat 11:57:40 AM 30.0106 -95.8758 285° West 135 155 4,700 1,548 Climbing FlightAware ADS-B
Sat 11:57:56 AM 30.0132 -95.8867 286° West 130 150 5,100 1,313 Climbing FlightAware ADS-B
Sat 11:58:12 AM 30.0157 -95.8970 285° West 130 150 5,400 1,161 Climbing FlightAware ADS-B
Sat 11:58:27 AM 30.0181 -95.9071 286° West 130 150 5,700 1,200 Climbing FlightAware ADS-B
Sat 11:58:42 AM 30.0206 -95.9172 285° West 131 151 6,000 1,385 Climbing FlightAware ADS-B
Sat 11:58:53 AM 30.0223 -95.9248 285° West 130 150 6,300 1,304 Climbing FlightAware ADS-B
Sat 11:59:05 AM 30.0241 -95.9325 284° West 130 150 6,500 1,200 Climbing FlightAware ADS-B
Sat 11:59:13 AM 30.0253 -95.9379 286° West 130 150 6,700 1,500 Climbing FlightAware ADS-B
Sat 11:59:21 AM 30.0266 -95.9430 285° West 130 150 6,900 1,565 Climbing FlightAware ADS-B
Sat 11:59:36 AM 30.0290 -95.9535 285° West 131 151 7,300 1,355 Climbing FlightAware ADS-B
Sat 11:59:52 AM 30.0316 -95.9645 285° West 133 153 7,600 1,154 Climbing FlightAware ADS-B
Sat 12:00:02 PM 30.0331 -95.9708 286° West 135 155 7,800 1,200 Climbing FlightAware ADS-B
Sat 12:00:17 PM 30.0358 -95.9819 286° West 139 160 8,100 581 Climbing FlightAware ADS-B
Sat 12:00:33 PM 30.0388 -95.9938 286° West 160 184 8,100  Level FlightAware ADS-B
Sat 12:00:48 PM 30.0421 -96.0071 285° West 176 203 8,100  Level FlightAware ADS-B
Sat 12:01:06 PM 30.0461 -96.0239 285° West 186 214 8,100  Level FlightAware ADS-B
Sat 12:01:21 PM 30.0496 -96.0391 285° West 192 221 8,100  Level FlightAware ADS-B
Sat 12:01:38 PM 30.0533 -96.0551 285° West 194 223 8,100  Level FlightAware ADS-B
Sat 12:01:53 PM 30.0569 -96.0710 285° West 195 224 8,100  Level FlightAware ADS-B
Sat 12:02:09 PM 30.0604 -96.0863 285° West 196 226 8,100  Level FlightAware ADS-B
Sat 12:02:24 PM 30.0639 -96.1014 285° West 195 224 8,100  Level FlightAware ADS-B
Sat 12:02:42 PM 30.0682 -96.1198 286° West 195 224 8,100  Level FlightAware ADS-B
Sat 12:02:57 PM 30.0718 -96.1348 285° West 196 226 8,100  Level FlightAware ADS-B
Sat 12:03:09 PM 30.0747 -96.1473 285° West 194 223 8,100  Level FlightAware ADS-B
Sat 12:03:25 PM 30.0783 -96.1627 285° West 188 216 8,100  Level FlightAware ADS-B
Sat 12:03:40 PM 30.0817 -96.1775 285° West 186 214 8,100  Level FlightAware ADS-B
Sat 12:03:56 PM 30.0851 -96.1920 285° West 184 212 8,100  Level FlightAware ADS-B
Sat 12:04:06 PM 30.0874 -96.2018 285° West 183 211 8,100  Level FlightAware ADS-B
Sat 12:04:21 PM 30.0908 -96.2163 285° West 182 209 8,100  Level FlightAware ADS-B
Sat 12:04:37 PM 30.0941 -96.2307 285° West 181 208 8,100  Level FlightAware ADS-B
Sat 12:04:54 PM 30.0978 -96.2465 285° West 181 208 8,100  Level FlightAware ADS-B
Sat 12:05:11 PM 30.1015 -96.2622 285° West 180 207 8,100  Level FlightAware ADS-B
Sat 12:05:26 PM 30.1048 -96.2766 285° West 179 206 8,100  Level FlightAware ADS-B
Sat 12:05:40 PM 30.1078 -96.2896 285° West 179 206 8,100  Level FlightAware ADS-B
Sat 12:05:50 PM 30.1100 -96.2991 285° West 180 207 8,100  Level FlightAware ADS-B
Sat 12:06:05 PM 30.1133 -96.3129 285° West 180 207 8,100  Level FlightAware ADS-B
Sat 12:06:21 PM 30.1166 -96.3271 285° West 179 206 8,100  Level FlightAware ADS-B
Sat 12:06:36 PM 30.1198 -96.3411 285° West 179 206 8,100  Level FlightAware ADS-B
Sat 12:06:55 PM 30.1239 -96.3589 285° West 179 206 8,100  Level FlightAware ADS-B
Sat 12:07:11 PM 30.1274 -96.3740 285° West 179 206 8,100  Level FlightAware ADS-B
Sat 12:07:27 PM 30.1306 -96.3878 285° West 179 206 8,100  Level FlightAware ADS-B
Sat 12:07:42 PM 30.1339 -96.4018 285° West 179 206 8,100  Level FlightAware ADS-B
Sat 12:07:57 PM 30.1371 -96.4160 285° West 179 206 8,100  Level FlightAware ADS-B
Sat 12:08:12 PM 30.1404 -96.4299 285° West 178 205 8,100  Level FlightAware ADS-B
Sat 12:08:28 PM 30.1436 -96.4439 285° West 178 205 8,100  Level FlightAware ADS-B
Sat 12:08:46 PM 30.1475 -96.4608 285° West 176 203 8,100  Level FlightAware ADS-B
Sat 12:09:01 PM 30.1507 -96.4747 285° West 176 203 8,100  Level FlightAware ADS-B
Sat 12:09:19 PM 30.1544 -96.4904 285° West 176 203 8,100  Level FlightAware ADS-B
Sat 12:09:34 PM 30.1576 -96.5044 285° West 176 203 8,100  Level FlightAware ADS-B
Sat 12:09:49 PM 30.1607 -96.5181 285° West 176 203 8,100  Level FlightAware ADS-B
Sat 12:10:04 PM 30.1639 -96.5320 285° West 176 203 8,100  Level FlightAware ADS-B
Sat 12:10:20 PM 30.1671 -96.5458 285° West 176 203 8,100  Level FlightAware ADS-B
Sat 12:10:36 PM 30.1705 -96.5607 285° West 177 204 8,100  Level FlightAware ADS-B
Sat 12:10:51 PM 30.1737 -96.5746 285° West 178 205 8,100  Level FlightAware ADS-B
Sat 12:11:06 PM 30.1769 -96.5886 285° West 179 206 8,100  Level FlightAware ADS-B
Sat 12:11:22 PM 30.1802 -96.6027 285° West 178 205 8,100  Level FlightAware ADS-B
Sat 12:11:37 PM 30.1835 -96.6170 285° West 178 205 8,100  Level FlightAware ADS-B
Sat 12:11:55 PM 30.1873 -96.6337 285° West 178 205 8,100  Level FlightAware ADS-B
Sat 12:12:12 PM 30.1908 -96.6490 285° West 179 206 8,100  Level FlightAware ADS-B
Sat 12:12:30 PM 30.1948 -96.6661 285° West 179 206 8,100  Level FlightAware ADS-B
Sat 12:13:06 PM 30.2023 -96.6992 285° West 179 206 8,100  Level FlightAware ADS-B
Sat 12:14:38 PM 30.2213 -96.7825 285° West 177 204 8,100  Level FlightAware ADS-B
Sat 12:14:53 PM 30.2245 -96.7964 285° West 176 203 8,100  Level FlightAware ADS-B
Sat 12:15:09 PM 30.2277 -96.8107 285° West 176 203 8,100  Level FlightAware ADS-B
Sat 12:15:24 PM 30.2309 -96.8246 285° West 176 203 8,100  Level FlightAware ADS-B
Sat 12:15:40 PM 30.2342 -96.8390 285° West 177 204 8,100  Level FlightAware ADS-B
Sat 12:15:55 PM 30.2374 -96.8529 285° West 177 204 8,100  Level FlightAware ADS-B
Sat 12:16:10 PM 30.2406 -96.8668 285° West 177 204 8,100  Level FlightAware ADS-B
Sat 12:16:26 PM 30.2438 -96.8809 284° West 177 204 8,100  Level FlightAware ADS-B
Sat 12:16:37 PM 30.2461 -96.8912 285° West 177 204 8,100  Level FlightAware ADS-B
Sat 12:16:52 PM 30.2493 -96.9051 285° West 178 205 8,100 -387 Level FlightAware ADS-B
Sat 12:17:08 PM 30.2527 -96.9200 285° West 186 214 7,900 -667 Descending FlightAware ADS-B
Sat 12:17:37 PM 30.2593 -96.9490 285° West 189 217 7,600 -517 Descending FlightAware ADS-B
Sat 12:18:06 PM 30.2658 -96.9777 285° West 196 226 7,400 -533 Descending FlightAware ADS-B
Sat 12:18:22 PM 30.2695 -96.9939 282° West 197 227 7,200 -750 Descending FlightAware ADS-B
Sat 12:25:52 PM 30.3376 -97.3613 282° West  Level FlightAware Approximate
Sat 12:26:52 PM 30.3468 -97.4106 282° West  Level FlightAware Approximate
Sat 12:27:52 PM 30.3561 -97.4598 282° West  Level FlightAware Approximate
Sat 12:28:52 PM 30.3652 -97.5091 297° West  Level FlightAware Approximate
Sat 12:29:52 PM 30.3833 -97.5500 297° West  Level FlightAware Approximate

Login

Don't have an account? Register now (free) for customized features, flight alerts, and more!